sensor_id;sensor_type;location;lat;lon;timestamp;temperature;humidity
74364;DHT22;62797;49.740;10.154;2023-10-09T00:00:31;12.40;64.30
74364;DHT22;62797;49.740;10.154;2023-10-09T00:03:06;12.40;64.20
74364;DHT22;62797;49.740;10.154;2023-10-09T00:05:33;12.50;63.50
74364;DHT22;62797;49.740;10.154;2023-10-09T00:08:24;12.50;63.30
74364;DHT22;62797;49.740;10.154;2023-10-09T00:11:00;12.50;63.30
74364;DHT22;62797;49.740;10.154;2023-10-09T00:13:45;12.50;64.10
74364;DHT22;62797;49.740;10.154;2023-10-09T00:16:21;12.60;63.70
74364;DHT22;62797;49.740;10.154;2023-10-09T00:19:04;12.60;63.80
74364;DHT22;62797;49.740;10.154;2023-10-09T00:21:49;12.50;64.50
74364;DHT22;62797;49.740;10.154;2023-10-09T00:24:16;12.50;64.00
74364;DHT22;62797;49.740;10.154;2023-10-09T00:26:50;12.50;64.20
74364;DHT22;62797;49.740;10.154;2023-10-09T00:29:17;12.60;64.30
74364;DHT22;62797;49.740;10.154;2023-10-09T00:31:52;12.70;63.70
74364;DHT22;62797;49.740;10.154;2023-10-09T00:34:40;12.60;63.40
74364;DHT22;62797;49.740;10.154;2023-10-09T00:37:10;12.60;64.10
74364;DHT22;62797;49.740;10.154;2023-10-09T00:39:45;12.60;63.80
74364;DHT22;62797;49.740;10.154;2023-10-09T00:42:14;12.60;63.80
74364;DHT22;62797;49.740;10.154;2023-10-09T00:44:41;12.60;64.10
74364;DHT22;62797;49.740;10.154;2023-10-09T00:47:17;12.70;63.40
74364;DHT22;62797;49.740;10.154;2023-10-09T00:49:51;12.70;63.20
74364;DHT22;62797;49.740;10.154;2023-10-09T00:52:25;12.60;63.90
74364;DHT22;62797;49.740;10.154;2023-10-09T00:54:59;12.60;63.70
74364;DHT22;62797;49.740;10.154;2023-10-09T00:57:29;12.70;64.10
74364;DHT22;62797;49.740;10.154;2023-10-09T01:00:00;12.60;63.80
74364;DHT22;62797;49.740;10.154;2023-10-09T01:02:27;12.60;63.70
74364;DHT22;62797;49.740;10.154;2023-10-09T01:05:03;12.70;63.80
74364;DHT22;62797;49.740;10.154;2023-10-09T01:07:51;12.70;63.70
74364;DHT22;62797;49.740;10.154;2023-10-09T01:10:24;12.80;64.40
74364;DHT22;62797;49.740;10.154;2023-10-09T01:12:51;12.80;64.50
74364;DHT22;62797;49.740;10.154;2023-10-09T01:15:20;12.70;64.90
74364;DHT22;62797;49.740;10.154;2023-10-09T01:18:03;12.80;64.70
74364;DHT22;62797;49.740;10.154;2023-10-09T01:20:30;12.80;65.20
74364;DHT22;62797;49.740;10.154;2023-10-09T01:23:02;12.80;65.10
74364;DHT22;62797;49.740;10.154;2023-10-09T01:25:28;12.70;64.80
74364;DHT22;62797;49.740;10.154;2023-10-09T01:28:07;12.70;65.00
74364;DHT22;62797;49.740;10.154;2023-10-09T01:30:33;12.60;65.40
74364;DHT22;62797;49.740;10.154;2023-10-09T01:32:58;12.60;64.70
74364;DHT22;62797;49.740;10.154;2023-10-09T01:35:37;12.70;65.00
74364;DHT22;62797;49.740;10.154;2023-10-09T01:38:12;12.80;64.00
74364;DHT22;62797;49.740;10.154;2023-10-09T01:40:40;12.70;64.40
74364;DHT22;62797;49.740;10.154;2023-10-09T01:43:06;12.70;64.70
74364;DHT22;62797;49.740;10.154;2023-10-09T01:45:36;12.60;65.10
74364;DHT22;62797;49.740;10.154;2023-10-09T01:48:08;12.60;64.90
74364;DHT22;62797;49.740;10.154;2023-10-09T01:50:34;12.60;65.30
74364;DHT22;62797;49.740;10.154;2023-10-09T01:53:08;12.60;65.30
74364;DHT22;62797;49.740;10.154;2023-10-09T01:55:34;12.60;65.60
74364;DHT22;62797;49.740;10.154;2023-10-09T01:58:07;12.70;65.60
74364;DHT22;62797;49.740;10.154;2023-10-09T02:00:50;12.70;65.40
74364;DHT22;62797;49.740;10.154;2023-10-09T02:03:21;12.70;65.30
74364;DHT22;62797;49.740;10.154;2023-10-09T02:05:50;12.60;65.50
74364;DHT22;62797;49.740;10.154;2023-10-09T02:08:25;12.60;65.20
74364;DHT22;62797;49.740;10.154;2023-10-09T02:11:01;12.70;65.40
74364;DHT22;62797;49.740;10.154;2023-10-09T02:13:28;12.60;65.10
74364;DHT22;62797;49.740;10.154;2023-10-09T02:16:00;12.60;65.20
74364;DHT22;62797;49.740;10.154;2023-10-09T02:18:41;12.60;65.10
74364;DHT22;62797;49.740;10.154;2023-10-09T02:21:22;12.60;65.00
74364;DHT22;62797;49.740;10.154;2023-10-09T02:24:05;12.60;64.70
74364;DHT22;62797;49.740;10.154;2023-10-09T02:26:51;12.50;64.50
74364;DHT22;62797;49.740;10.154;2023-10-09T02:29:17;12.40;64.40
74364;DHT22;62797;49.740;10.154;2023-10-09T02:31:42;12.40;65.30
74364;DHT22;62797;49.740;10.154;2023-10-09T02:34:13;12.40;65.60
74364;DHT22;62797;49.740;10.154;2023-10-09T02:36:41;12.30;65.60
74364;DHT22;62797;49.740;10.154;2023-10-09T02:39:14;12.30;65.50
74364;DHT22;62797;49.740;10.154;2023-10-09T02:41:53;12.30;65.20
74364;DHT22;62797;49.740;10.154;2023-10-09T02:44:25;12.20;64.80
74364;DHT22;62797;49.740;10.154;2023-10-09T02:46:52;12.20;65.10
74364;DHT22;62797;49.740;10.154;2023-10-09T02:49:23;12.10;65.30
74364;DHT22;62797;49.740;10.154;2023-10-09T02:51:50;12.10;65.80
74364;DHT22;62797;49.740;10.154;2023-10-09T02:54:19;12.10;65.00
74364;DHT22;62797;49.740;10.154;2023-10-09T02:57:01;12.10;65.10
74364;DHT22;62797;49.740;10.154;2023-10-09T02:59:34;12.10;64.40
74364;DHT22;62797;49.740;10.154;2023-10-09T03:02:00;11.90;64.70
74364;DHT22;62797;49.740;10.154;2023-10-09T03:04:26;11.90;65.80
74364;DHT22;62797;49.740;10.154;2023-10-09T03:07:02;11.80;65.80
74364;DHT22;62797;49.740;10.154;2023-10-09T03:09:30;11.80;66.20
74364;DHT22;62797;49.740;10.154;2023-10-09T03:11:59;11.80;66.30
74364;DHT22;62797;49.740;10.154;2023-10-09T03:14:30;11.80;66.20
74364;DHT22;62797;49.740;10.154;2023-10-09T03:16:57;11.70;65.90
74364;DHT22;62797;49.740;10.154;2023-10-09T03:19:25;11.80;66.50
74364;DHT22;62797;49.740;10.154;2023-10-09T03:21:52;11.70;65.80
74364;DHT22;62797;49.740;10.154;2023-10-09T03:24:17;11.70;64.90
74364;DHT22;62797;49.740;10.154;2023-10-09T03:26:43;11.70;65.80
74364;DHT22;62797;49.740;10.154;2023-10-09T03:29:12;11.60;65.40
74364;DHT22;62797;49.740;10.154;2023-10-09T03:31:38;11.60;65.80
74364;DHT22;62797;49.740;10.154;2023-10-09T03:34:06;11.60;65.50
74364;DHT22;62797;49.740;10.154;2023-10-09T03:36:36;11.60;64.70
74364;DHT22;62797;49.740;10.154;2023-10-09T03:39:06;11.40;65.30
74364;DHT22;62797;49.740;10.154;2023-10-09T03:41:56;11.30;66.00
74364;DHT22;62797;49.740;10.154;2023-10-09T03:44:27;11.30;66.40
74364;DHT22;62797;49.740;10.154;2023-10-09T03:46:56;11.40;66.30
74364;DHT22;62797;49.740;10.154;2023-10-09T03:49:21;11.40;65.50
74364;DHT22;62797;49.740;10.154;2023-10-09T03:51:51;11.40;65.30
74364;DHT22;62797;49.740;10.154;2023-10-09T03:54:18;11.40;65.30
74364;DHT22;62797;49.740;10.154;2023-10-09T03:56:46;11.40;65.50
74364;DHT22;62797;49.740;10.154;2023-10-09T03:59:19;11.30;65.30
74364;DHT22;62797;49.740;10.154;2023-10-09T04:01:48;11.30;65.80
74364;DHT22;62797;49.740;10.154;2023-10-09T04:04:14;11.30;65.30
74364;DHT22;62797;49.740;10.154;2023-10-09T04:06:40;11.30;65.50
74364;DHT22;62797;49.740;10.154;2023-10-09T04:09:09;11.20;65.40
74364;DHT22;62797;49.740;10.154;2023-10-09T04:11:55;11.20;65.40
74364;DHT22;62797;49.740;10.154;2023-10-09T04:14:36;11.20;65.70
74364;DHT22;62797;49.740;10.154;2023-10-09T04:17:02;11.20;66.00
74364;DHT22;62797;49.740;10.154;2023-10-09T04:19:34;11.10;66.00
74364;DHT22;62797;49.740;10.154;2023-10-09T04:22:14;11.20;65.40
74364;DHT22;62797;49.740;10.154;2023-10-09T04:24:52;11.20;64.90
74364;DHT22;62797;49.740;10.154;2023-10-09T04:27:18;11.10;65.50
74364;DHT22;62797;49.740;10.154;2023-10-09T04:29:52;11.10;65.40
74364;DHT22;62797;49.740;10.154;2023-10-09T04:32:20;11.00;65.30
74364;DHT22;62797;49.740;10.154;2023-10-09T04:34:48;11.00;65.70
74364;DHT22;62797;49.740;10.154;2023-10-09T04:37:15;11.00;66.10
74364;DHT22;62797;49.740;10.154;2023-10-09T04:39:44;11.00;65.90
74364;DHT22;62797;49.740;10.154;2023-10-09T04:42:16;11.00;66.40
74364;DHT22;62797;49.740;10.154;2023-10-09T04:44:51;11.10;66.00
74364;DHT22;62797;49.740;10.154;2023-10-09T04:47:27;11.10;65.50
74364;DHT22;62797;49.740;10.154;2023-10-09T04:50:11;11.20;65.60
74364;DHT22;62797;49.740;10.154;2023-10-09T04:52:38;11.10;65.50
74364;DHT22;62797;49.740;10.154;2023-10-09T04:55:04;11.10;66.70
74364;DHT22;62797;49.740;10.154;2023-10-09T04:57:43;11.10;67.30
74364;DHT22;62797;49.740;10.154;2023-10-09T05:00:09;11.20;67.00
74364;DHT22;62797;49.740;10.154;2023-10-09T05:03:08;11.10;66.70
74364;DHT22;62797;49.740;10.154;2023-10-09T05:05:38;11.10;67.40
74364;DHT22;62797;49.740;10.154;2023-10-09T05:08:10;11.20;67.00
74364;DHT22;62797;49.740;10.154;2023-10-09T05:11:00;11.20;66.50
74364;DHT22;62797;49.740;10.154;2023-10-09T05:13:30;11.20;66.70
74364;DHT22;62797;49.740;10.154;2023-10-09T05:16:22;11.20;66.00
74364;DHT22;62797;49.740;10.154;2023-10-09T05:18:48;11.20;66.30
74364;DHT22;62797;49.740;10.154;2023-10-09T05:21:40;11.30;66.70
74364;DHT22;62797;49.740;10.154;2023-10-09T05:24:09;11.30;66.30
74364;DHT22;62797;49.740;10.154;2023-10-09T05:26:48;11.30;65.80
74364;DHT22;62797;49.740;10.154;2023-10-09T05:29:22;11.30;66.10
74364;DHT22;62797;49.740;10.154;2023-10-09T05:32:06;11.30;65.70
74364;DHT22;62797;49.740;10.154;2023-10-09T05:34:38;11.20;66.30
74364;DHT22;62797;49.740;10.154;2023-10-09T05:37:22;11.20;67.00
74364;DHT22;62797;49.740;10.154;2023-10-09T05:39:51;11.30;66.70
74364;DHT22;62797;49.740;10.154;2023-10-09T05:42:26;11.30;66.90
74364;DHT22;62797;49.740;10.154;2023-10-09T05:45:15;11.30;67.40
74364;DHT22;62797;49.740;10.154;2023-10-09T05:48:00;11.40;68.80
74364;DHT22;62797;49.740;10.154;2023-10-09T05:50:37;11.40;69.60
74364;DHT22;62797;49.740;10.154;2023-10-09T05:53:04;11.50;69.40
74364;DHT22;62797;49.740;10.154;2023-10-09T05:55:32;11.60;69.30
74364;DHT22;62797;49.740;10.154;2023-10-09T05:58:03;11.60;69.00
74364;DHT22;62797;49.740;10.154;2023-10-09T06:00:48;11.70;67.70
74364;DHT22;62797;49.740;10.154;2023-10-09T06:03:32;11.70;66.90
74364;DHT22;62797;49.740;10.154;2023-10-09T06:06:17;11.70;66.70
74364;DHT22;62797;49.740;10.154;2023-10-09T06:09:05;11.80;67.10
74364;DHT22;62797;49.740;10.154;2023-10-09T06:11:45;11.80;66.80
74364;DHT22;62797;49.740;10.154;2023-10-09T06:14:21;11.90;66.80
74364;DHT22;62797;49.740;10.154;2023-10-09T06:16:51;11.90;66.60
74364;DHT22;62797;49.740;10.154;2023-10-09T06:19:24;12.00;66.00
74364;DHT22;62797;49.740;10.154;2023-10-09T06:21:58;12.00;66.70
74364;DHT22;62797;49.740;10.154;2023-10-09T06:24:42;12.10;66.80
74364;DHT22;62797;49.740;10.154;2023-10-09T06:27:09;12.10;67.20
74364;DHT22;62797;49.740;10.154;2023-10-09T06:29:39;12.20;67.10
74364;DHT22;62797;49.740;10.154;2023-10-09T06:32:14;12.30;68.10
74364;DHT22;62797;49.740;10.154;2023-10-09T06:34:50;12.30;67.70
74364;DHT22;62797;49.740;10.154;2023-10-09T06:37:22;12.40;67.40
74364;DHT22;62797;49.740;10.154;2023-10-09T06:39:51;12.40;67.20
74364;DHT22;62797;49.740;10.154;2023-10-09T06:42:27;12.50;67.30
74364;DHT22;62797;49.740;10.154;2023-10-09T06:45:05;12.60;67.00
74364;DHT22;62797;49.740;10.154;2023-10-09T06:47:40;12.70;67.30
74364;DHT22;62797;49.740;10.154;2023-10-09T06:50:19;12.70;67.90
74364;DHT22;62797;49.740;10.154;2023-10-09T06:52:48;12.80;68.10
74364;DHT22;62797;49.740;10.154;2023-10-09T06:55:44;12.90;68.60
74364;DHT22;62797;49.740;10.154;2023-10-09T06:58:27;13.10;68.10
74364;DHT22;62797;49.740;10.154;2023-10-09T07:00:54;13.20;67.60
74364;DHT22;62797;49.740;10.154;2023-10-09T07:03:20;13.40;67.20
74364;DHT22;62797;49.740;10.154;2023-10-09T07:06:10;13.50;66.60
74364;DHT22;62797;49.740;10.154;2023-10-09T07:08:56;13.60;65.20
74364;DHT22;62797;49.740;10.154;2023-10-09T07:11:47;13.70;65.40
74364;DHT22;62797;49.740;10.154;2023-10-09T07:14:23;13.80;65.20
74364;DHT22;62797;49.740;10.154;2023-10-09T07:17:01;13.90;65.90
74364;DHT22;62797;49.740;10.154;2023-10-09T07:19:28;14.00;65.70
74364;DHT22;62797;49.740;10.154;2023-10-09T07:22:01;14.10;65.20
74364;DHT22;62797;49.740;10.154;2023-10-09T07:24:30;14.30;64.60
74364;DHT22;62797;49.740;10.154;2023-10-09T07:27:16;14.40;64.00
74364;DHT22;62797;49.740;10.154;2023-10-09T07:29:43;14.50;64.10
74364;DHT22;62797;49.740;10.154;2023-10-09T07:32:19;14.70;63.40
74364;DHT22;62797;49.740;10.154;2023-10-09T07:34:50;14.80;62.30
74364;DHT22;62797;49.740;10.154;2023-10-09T07:37:28;14.90;61.30
74364;DHT22;62797;49.740;10.154;2023-10-09T07:39:56;15.00;60.20
74364;DHT22;62797;49.740;10.154;2023-10-09T07:42:25;15.10;60.60
74364;DHT22;62797;49.740;10.154;2023-10-09T07:45:10;15.30;60.50
74364;DHT22;62797;49.740;10.154;2023-10-09T07:47:59;15.50;59.80
74364;DHT22;62797;49.740;10.154;2023-10-09T07:50:25;15.70;58.80
74364;DHT22;62797;49.740;10.154;2023-10-09T07:52:57;15.80;56.70
74364;DHT22;62797;49.740;10.154;2023-10-09T07:55:40;16.00;55.80
74364;DHT22;62797;49.740;10.154;2023-10-09T07:58:11;16.10;55.10
74364;DHT22;62797;49.740;10.154;2023-10-09T08:00:37;16.30;55.60
74364;DHT22;62797;49.740;10.154;2023-10-09T08:03:24;16.40;55.00
74364;DHT22;62797;49.740;10.154;2023-10-09T08:05:50;16.60;54.90
74364;DHT22;62797;49.740;10.154;2023-10-09T08:08:18;16.70;54.70
74364;DHT22;62797;49.740;10.154;2023-10-09T08:10:59;16.80;53.80
74364;DHT22;62797;49.740;10.154;2023-10-09T08:13:54;16.90;52.40
74364;DHT22;62797;49.740;10.154;2023-10-09T08:16:26;17.00;52.80
74364;DHT22;62797;49.740;10.154;2023-10-09T08:19:05;17.20;52.60
74364;DHT22;62797;49.740;10.154;2023-10-09T08:21:53;17.40;50.20
74364;DHT22;62797;49.740;10.154;2023-10-09T08:24:37;17.50;49.70
74364;DHT22;62797;49.740;10.154;2023-10-09T08:27:18;17.60;49.60
74364;DHT22;62797;49.740;10.154;2023-10-09T08:29:59;17.60;47.00
74364;DHT22;62797;49.740;10.154;2023-10-09T08:32:50;17.70;48.00
74364;DHT22;62797;49.740;10.154;2023-10-09T08:35:29;17.70;46.30
74364;DHT22;62797;49.740;10.154;2023-10-09T08:38:01;17.60;47.20
74364;DHT22;62797;49.740;10.154;2023-10-09T08:40:38;17.70;45.70
74364;DHT22;62797;49.740;10.154;2023-10-09T08:43:15;17.70;44.90
74364;DHT22;62797;49.740;10.154;2023-10-09T08:48:14;17.80;42.40
74364;DHT22;62797;49.740;10.154;2023-10-09T08:50:52;17.70;42.30
74364;DHT22;62797;49.740;10.154;2023-10-09T08:53:22;17.70;42.50
74364;DHT22;62797;49.740;10.154;2023-10-09T08:55:49;17.70;43.10
74364;DHT22;62797;49.740;10.154;2023-10-09T08:58:17;17.70;44.40
74364;DHT22;62797;49.740;10.154;2023-10-09T09:00:50;17.70;44.90
74364;DHT22;62797;49.740;10.154;2023-10-09T09:03:18;17.60;47.60
74364;DHT22;62797;49.740;10.154;2023-10-09T09:05:59;17.70;46.30
74364;DHT22;62797;49.740;10.154;2023-10-09T09:08:33;17.80;45.80
74364;DHT22;62797;49.740;10.154;2023-10-09T09:11:02;17.90;47.00
74364;DHT22;62797;49.740;10.154;2023-10-09T09:13:45;17.90;46.20
74364;DHT22;62797;49.740;10.154;2023-10-09T09:16:20;17.90;45.80
74364;DHT22;62797;49.740;10.154;2023-10-09T09:18:51;17.90;45.80
74364;DHT22;62797;49.740;10.154;2023-10-09T09:21:21;17.90;45.00
74364;DHT22;62797;49.740;10.154;2023-10-09T09:23:57;17.90;44.90
74364;DHT22;62797;49.740;10.154;2023-10-09T09:26:34;17.80;44.10
74364;DHT22;62797;49.740;10.154;2023-10-09T09:29:11;17.90;43.90
74364;DHT22;62797;49.740;10.154;2023-10-09T09:31:37;17.90;42.70
74364;DHT22;62797;49.740;10.154;2023-10-09T09:34:08;17.90;43.10
74364;DHT22;62797;49.740;10.154;2023-10-09T09:36:58;17.90;43.30
74364;DHT22;62797;49.740;10.154;2023-10-09T09:39:26;17.90;42.50
74364;DHT22;62797;49.740;10.154;2023-10-09T09:42:00;17.90;42.50
74364;DHT22;62797;49.740;10.154;2023-10-09T09:44:36;17.90;42.70
74364;DHT22;62797;49.740;10.154;2023-10-09T09:47:15;17.90;42.50
74364;DHT22;62797;49.740;10.154;2023-10-09T09:49:57;17.90;41.60
74364;DHT22;62797;49.740;10.154;2023-10-09T09:52:28;18.00;42.30
74364;DHT22;62797;49.740;10.154;2023-10-09T09:54:54;18.00;43.30
74364;DHT22;62797;49.740;10.154;2023-10-09T09:57:24;18.00;43.00
74364;DHT22;62797;49.740;10.154;2023-10-09T09:59:53;18.00;42.60
74364;DHT22;62797;49.740;10.154;2023-10-09T10:02:36;18.10;43.50
74364;DHT22;62797;49.740;10.154;2023-10-09T10:05:06;18.10;42.70
74364;DHT22;62797;49.740;10.154;2023-10-09T10:07:34;18.20;43.60
74364;DHT22;62797;49.740;10.154;2023-10-09T10:10:36;18.30;41.40
74364;DHT22;62797;49.740;10.154;2023-10-09T10:13:03;18.50;41.40
74364;DHT22;62797;49.740;10.154;2023-10-09T10:15:57;18.50;41.50
74364;DHT22;62797;49.740;10.154;2023-10-09T10:18:23;18.50;41.50
74364;DHT22;62797;49.740;10.154;2023-10-09T10:23:40;18.80;39.50
74364;DHT22;62797;49.740;10.154;2023-10-09T10:26:22;18.90;40.40
74364;DHT22;62797;49.740;10.154;2023-10-09T10:29:17;18.90;38.20
74364;DHT22;62797;49.740;10.154;2023-10-09T10:34:17;19.00;38.90
74364;DHT22;62797;49.740;10.154;2023-10-09T10:36:50;19.00;38.10
74364;DHT22;62797;49.740;10.154;2023-10-09T10:39:24;19.10;37.90
74364;DHT22;62797;49.740;10.154;2023-10-09T10:42:08;19.20;38.30
74364;DHT22;62797;49.740;10.154;2023-10-09T10:45:05;19.40;36.80
74364;DHT22;62797;49.740;10.154;2023-10-09T10:47:51;19.50;35.50
74364;DHT22;62797;49.740;10.154;2023-10-09T10:50:21;19.50;35.20
74364;DHT22;62797;49.740;10.154;2023-10-09T10:53:12;19.50;35.30
74364;DHT22;62797;49.740;10.154;2023-10-09T10:56:00;19.60;34.70
74364;DHT22;62797;49.740;10.154;2023-10-09T10:58:54;19.60;33.90
74364;DHT22;62797;49.740;10.154;2023-10-09T11:01:40;19.50;34.70
74364;DHT22;62797;49.740;10.154;2023-10-09T11:04:29;19.50;35.40
74364;DHT22;62797;49.740;10.154;2023-10-09T11:06:56;19.40;35.00
74364;DHT22;62797;49.740;10.154;2023-10-09T11:09:26;19.40;34.70
74364;DHT22;62797;49.740;10.154;2023-10-09T11:12:08;19.30;35.00
74364;DHT22;62797;49.740;10.154;2023-10-09T11:14:48;19.30;35.20
74364;DHT22;62797;49.740;10.154;2023-10-09T11:17:32;19.30;35.50
74364;DHT22;62797;49.740;10.154;2023-10-09T11:20:04;19.30;35.60
74364;DHT22;62797;49.740;10.154;2023-10-09T11:22:49;19.30;35.20
74364;DHT22;62797;49.740;10.154;2023-10-09T11:25:34;19.20;35.10
74364;DHT22;62797;49.740;10.154;2023-10-09T11:27:59;19.20;35.70
74364;DHT22;62797;49.740;10.154;2023-10-09T11:30:41;19.30;35.70
74364;DHT22;62797;49.740;10.154;2023-10-09T11:33:11;19.20;35.50
74364;DHT22;62797;49.740;10.154;2023-10-09T11:35:40;19.30;36.60
74364;DHT22;62797;49.740;10.154;2023-10-09T11:38:08;19.30;36.90
74364;DHT22;62797;49.740;10.154;2023-10-09T11:40:46;19.40;37.20
74364;DHT22;62797;49.740;10.154;2023-10-09T11:43:15;19.40;36.80
74364;DHT22;62797;49.740;10.154;2023-10-09T11:45:41;19.30;36.10
74364;DHT22;62797;49.740;10.154;2023-10-09T11:48:20;19.40;36.20
74364;DHT22;62797;49.740;10.154;2023-10-09T11:51:13;19.40;37.20
74364;DHT22;62797;49.740;10.154;2023-10-09T11:53:43;19.40;37.50
74364;DHT22;62797;49.740;10.154;2023-10-09T11:56:10;19.40;36.30
74364;DHT22;62797;49.740;10.154;2023-10-09T11:58:40;19.40;38.30
74364;DHT22;62797;49.740;10.154;2023-10-09T12:01:12;19.40;39.10
74364;DHT22;62797;49.740;10.154;2023-10-09T12:03:51;19.50;37.60
74364;DHT22;62797;49.740;10.154;2023-10-09T12:06:18;19.60;37.10
74364;DHT22;62797;49.740;10.154;2023-10-09T12:08:45;19.70;37.00
74364;DHT22;62797;49.740;10.154;2023-10-09T12:11:17;19.70;37.00
74364;DHT22;62797;49.740;10.154;2023-10-09T12:13:57;19.70;36.60
74364;DHT22;62797;49.740;10.154;2023-10-09T12:16:24;19.70;36.70
74364;DHT22;62797;49.740;10.154;2023-10-09T12:18:54;19.80;36.90
74364;DHT22;62797;49.740;10.154;2023-10-09T12:21:23;19.80;36.80
74364;DHT22;62797;49.740;10.154;2023-10-09T12:23:49;19.90;35.90
74364;DHT22;62797;49.740;10.154;2023-10-09T12:26:15;19.90;35.90
74364;DHT22;62797;49.740;10.154;2023-10-09T12:28:41;20.00;35.30
74364;DHT22;62797;49.740;10.154;2023-10-09T12:31:12;19.90;35.00
74364;DHT22;62797;49.740;10.154;2023-10-09T12:33:40;20.00;35.80
74364;DHT22;62797;49.740;10.154;2023-10-09T12:36:11;20.00;34.00
74364;DHT22;62797;49.740;10.154;2023-10-09T12:38:43;20.00;34.30
74364;DHT22;62797;49.740;10.154;2023-10-09T12:41:11;19.90;33.40
74364;DHT22;62797;49.740;10.154;2023-10-09T12:43:54;20.00;32.70
74364;DHT22;62797;49.740;10.154;2023-10-09T12:46:20;20.00;34.30
74364;DHT22;62797;49.740;10.154;2023-10-09T12:48:52;20.10;33.80
74364;DHT22;62797;49.740;10.154;2023-10-09T12:51:20;20.10;33.70
74364;DHT22;62797;49.740;10.154;2023-10-09T12:53:46;20.10;33.00
74364;DHT22;62797;49.740;10.154;2023-10-09T12:56:25;20.10;32.30
74364;DHT22;62797;49.740;10.154;2023-10-09T12:59:01;20.00;33.60
74364;DHT22;62797;49.740;10.154;2023-10-09T13:01:27;20.00;31.20
74364;DHT22;62797;49.740;10.154;2023-10-09T13:04:00;20.10;31.80
74364;DHT22;62797;49.740;10.154;2023-10-09T13:06:26;20.00;32.70
74364;DHT22;62797;49.740;10.154;2023-10-09T13:08:53;20.10;31.30
74364;DHT22;62797;49.740;10.154;2023-10-09T13:11:21;20.20;31.40
74364;DHT22;62797;49.740;10.154;2023-10-09T13:13:47;20.20;30.40
74364;DHT22;62797;49.740;10.154;2023-10-09T13:16:20;20.20;30.00
74364;DHT22;62797;49.740;10.154;2023-10-09T13:18:52;20.30;30.90
74364;DHT22;62797;49.740;10.154;2023-10-09T13:21:22;20.40;29.50
74364;DHT22;62797;49.740;10.154;2023-10-09T13:23:49;20.40;28.20
74364;DHT22;62797;49.740;10.154;2023-10-09T13:26:17;20.40;28.90
74364;DHT22;62797;49.740;10.154;2023-10-09T13:28:51;20.30;29.60
74364;DHT22;62797;49.740;10.154;2023-10-09T13:31:19;20.30;29.90
74364;DHT22;62797;49.740;10.154;2023-10-09T13:33:47;20.30;29.20
74364;DHT22;62797;49.740;10.154;2023-10-09T13:36:14;20.40;29.60
74364;DHT22;62797;49.740;10.154;2023-10-09T13:38:54;20.40;28.80
74364;DHT22;62797;49.740;10.154;2023-10-09T13:41:20;20.50;27.70
74364;DHT22;62797;49.740;10.154;2023-10-09T13:43:46;20.50;27.10
74364;DHT22;62797;49.740;10.154;2023-10-09T13:46:12;20.50;26.40
74364;DHT22;62797;49.740;10.154;2023-10-09T13:48:41;20.50;26.70
74364;DHT22;62797;49.740;10.154;2023-10-09T13:51:12;20.60;25.60
74364;DHT22;62797;49.740;10.154;2023-10-09T13:53:46;20.60;26.80
74364;DHT22;62797;49.740;10.154;2023-10-09T13:56:13;20.50;26.60
74364;DHT22;62797;49.740;10.154;2023-10-09T13:58:41;20.60;26.10
74364;DHT22;62797;49.740;10.154;2023-10-09T14:01:09;20.60;26.60
74364;DHT22;62797;49.740;10.154;2023-10-09T14:03:35;20.70;26.00
74364;DHT22;62797;49.740;10.154;2023-10-09T14:06:00;20.70;25.90
74364;DHT22;62797;49.740;10.154;2023-10-09T14:08:36;20.70;24.80
74364;DHT22;62797;49.740;10.154;2023-10-09T14:11:08;20.80;24.80
74364;DHT22;62797;49.740;10.154;2023-10-09T14:13:42;20.90;24.50
74364;DHT22;62797;49.740;10.154;2023-10-09T14:16:08;20.90;23.80
74364;DHT22;62797;49.740;10.154;2023-10-09T14:18:52;20.90;24.10
74364;DHT22;62797;49.740;10.154;2023-10-09T14:21:25;21.00;23.20
74364;DHT22;62797;49.740;10.154;2023-10-09T14:23:52;21.10;22.90
74364;DHT22;62797;49.740;10.154;2023-10-09T14:26:24;21.00;23.70
74364;DHT22;62797;49.740;10.154;2023-10-09T14:28:52;21.00;24.10
74364;DHT22;62797;49.740;10.154;2023-10-09T14:31:19;21.00;23.80
74364;DHT22;62797;49.740;10.154;2023-10-09T14:33:55;21.00;23.30
74364;DHT22;62797;49.740;10.154;2023-10-09T14:36:21;21.00;23.20
74364;DHT22;62797;49.740;10.154;2023-10-09T14:38:59;21.00;23.80
74364;DHT22;62797;49.740;10.154;2023-10-09T14:41:26;21.00;23.90
74364;DHT22;62797;49.740;10.154;2023-10-09T14:43:54;21.00;24.50
74364;DHT22;62797;49.740;10.154;2023-10-09T14:46:20;21.00;24.50
74364;DHT22;62797;49.740;10.154;2023-10-09T14:48:53;21.00;25.40
74364;DHT22;62797;49.740;10.154;2023-10-09T14:51:24;21.00;24.80
74364;DHT22;62797;49.740;10.154;2023-10-09T14:53:56;21.00;24.20
74364;DHT22;62797;49.740;10.154;2023-10-09T14:56:26;21.10;25.50
74364;DHT22;62797;49.740;10.154;2023-10-09T14:58:58;21.20;24.10
74364;DHT22;62797;49.740;10.154;2023-10-09T15:01:25;21.10;23.80
74364;DHT22;62797;49.740;10.154;2023-10-09T15:03:55;21.10;24.40
74364;DHT22;62797;49.740;10.154;2023-10-09T15:06:24;21.00;25.80
74364;DHT22;62797;49.740;10.154;2023-10-09T15:08:50;21.00;25.40
74364;DHT22;62797;49.740;10.154;2023-10-09T15:11:16;21.00;25.20
74364;DHT22;62797;49.740;10.154;2023-10-09T15:13:41;21.00;24.70
74364;DHT22;62797;49.740;10.154;2023-10-09T15:16:07;20.90;24.80
74364;DHT22;62797;49.740;10.154;2023-10-09T15:18:33;20.90;24.40
74364;DHT22;62797;49.740;10.154;2023-10-09T15:20:59;20.90;24.30
74364;DHT22;62797;49.740;10.154;2023-10-09T15:23:26;20.80;24.20
74364;DHT22;62797;49.740;10.154;2023-10-09T15:25:52;20.80;24.50
74364;DHT22;62797;49.740;10.154;2023-10-09T15:28:22;20.90;24.10
74364;DHT22;62797;49.740;10.154;2023-10-09T15:30:48;20.90;24.00
74364;DHT22;62797;49.740;10.154;2023-10-09T15:33:15;20.90;24.20
74364;DHT22;62797;49.740;10.154;2023-10-09T15:35:45;20.80;24.20
74364;DHT22;62797;49.740;10.154;2023-10-09T15:38:15;20.80;25.10
74364;DHT22;62797;49.740;10.154;2023-10-09T15:40:41;20.70;25.40
74364;DHT22;62797;49.740;10.154;2023-10-09T15:43:10;20.70;24.40
74364;DHT22;62797;49.740;10.154;2023-10-09T15:45:43;20.70;25.00
74364;DHT22;62797;49.740;10.154;2023-10-09T15:48:15;20.70;24.90
74364;DHT22;62797;49.740;10.154;2023-10-09T15:50:45;20.60;24.90
74364;DHT22;62797;49.740;10.154;2023-10-09T15:53:15;20.60;25.60
74364;DHT22;62797;49.740;10.154;2023-10-09T15:55:44;20.50;26.20
74364;DHT22;62797;49.740;10.154;2023-10-09T15:58:10;20.50;26.60
74364;DHT22;62797;49.740;10.154;2023-10-09T16:00:35;20.40;26.70